Time;durP1;ratioP1;P1;durP2;ratioP2;P2;SDS_P1;SDS_P2;PMS_P1;PMS_P2;Temp;Humidity;BMP_temperature;BMP_pressure;BME280_temperature;BME280_humidity;BME280_pressure;Samples;Min_cycle;Max_cycle;Signal;HPM_P1;HPM_P2
2021/07/09 00:01:39;;;;;;;11.93;6.40;;;14.50;99.90;;;;;;5030388;28;20037;-83
2021/07/09 00:04:06;;;;;;;11.63;5.97;;;14.50;99.90;;;;;;5036239;28;20049;-84
2021/07/09 00:06:34;;;;;;;13.38;6.80;;;14.50;99.90;;;;;;5030832;28;20475;-84
2021/07/09 00:09:03;;;;;;;9.27;6.60;;;14.50;99.90;;;;;;5015668;28;20049;-84
2021/07/09 00:11:30;;;;;;;9.45;6.45;;;14.50;99.90;;;;;;5011697;28;20045;-83
2021/07/09 00:13:57;;;;;;;11.07;6.65;;;14.50;99.90;;;;;;5016567;28;20048;-83
2021/07/09 00:16:24;;;;;;;12.48;6.55;;;14.50;99.90;;;;;;5017302;28;20045;-84
2021/07/09 00:18:51;;;;;;;10.48;7.00;;;14.50;99.90;;;;;;5016574;28;20053;-84
2021/07/09 00:21:18;;;;;;;9.35;6.30;;;14.50;99.90;;;;;;5018648;28;20042;-84
2021/07/09 00:23:46;;;;;;;12.57;5.70;;;14.50;99.90;;;;;;5023897;28;20049;-84
2021/07/09 00:26:13;;;;;;;15.68;5.85;;;14.50;99.90;;;;;;5029453;28;20049;-84
2021/07/09 00:28:40;;;;;;;7.63;5.28;;;14.50;99.90;;;;;;5031375;28;20045;-84
2021/07/09 00:31:07;;;;;;;6.30;5.30;;;14.50;99.90;;;;;;5002150;28;20046;-84
2021/07/09 00:33:35;;;;;;;11.63;5.50;;;14.50;99.90;;;;;;5024013;28;20068;-84
2021/07/09 00:36:02;;;;;;;11.05;5.07;;;14.50;99.90;;;;;;5012325;28;20061;-84
2021/07/09 00:38:29;;;;;;;10.25;5.70;;;14.50;99.90;;;;;;5012490;28;20057;-83
2021/07/09 00:40:57;;;;;;;10.55;5.63;;;14.60;99.90;;;;;;5015729;28;20056;-84
2021/07/09 00:43:24;;;;;;;12.02;5.13;;;14.50;99.90;;;;;;5015882;28;20056;-84
2021/07/09 00:45:51;;;;;;;9.70;5.25;;;14.60;99.90;;;;;;5015478;28;20116;-84
2021/07/09 00:48:18;;;;;;;13.02;5.47;;;14.50;99.90;;;;;;5025392;28;20387;-84
2021/07/09 00:50:46;;;;;;;13.27;8.73;;;14.50;99.90;;;;;;5010558;28;20387;-83
2021/07/09 00:53:12;;;;;;;17.85;10.25;;;14.50;99.90;;;;;;5032373;28;20045;-83
2021/07/09 00:55:40;;;;;;;15.43;8.45;;;14.50;99.90;;;;;;5031032;28;20049;-84
2021/07/09 00:58:07;;;;;;;13.93;7.88;;;14.50;99.90;;;;;;5022644;28;20055;-84
2021/07/09 01:00:34;;;;;;;10.52;7.07;;;14.50;99.90;;;;;;5017583;28;20115;-84
2021/07/09 01:03:01;;;;;;;11.15;5.80;;;14.50;99.90;;;;;;5034658;28;20049;-83
2021/07/09 01:05:28;;;;;;;7.35;5.25;;;14.50;99.90;;;;;;5010854;28;20038;-84
2021/07/09 01:07:55;;;;;;;10.95;5.75;;;14.50;99.90;;;;;;5029139;28;20045;-84
2021/07/09 01:10:22;;;;;;;9.00;5.20;;;14.50;99.90;;;;;;5031295;28;20037;-84
2021/07/09 01:12:50;;;;;;;9.23;5.63;;;14.50;99.90;;;;;;5015450;28;20277;-84
2021/07/09 01:15:18;;;;;;;7.53;4.70;;;14.50;99.90;;;;;;5014249;28;20383;-84
2021/07/09 01:17:46;;;;;;;9.20;5.25;;;14.50;99.90;;;;;;5027696;28;20128;-84
2021/07/09 01:20:15;;;;;;;7.32;5.78;;;14.50;99.90;;;;;;5026186;28;20060;-83
2021/07/09 01:22:44;;;;;;;12.23;5.72;;;14.50;99.90;;;;;;5033660;28;20040;-83
2021/07/09 01:25:25;;;;;;;11.98;6.07;;;14.50;99.90;;;;;;5020323;28;20386;-84
2021/07/09 01:27:59;;;;;;;8.50;5.45;;;14.50;99.90;;;;;;5016848;28;20049;-84
2021/07/09 01:30:27;;;;;;;11.80;6.13;;;14.50;99.90;;;;;;5018968;28;20037;-83
2021/07/09 01:32:55;;;;;;;11.52;5.97;;;14.50;99.90;;;;;;5012167;28;20048;-83
2021/07/09 01:35:25;;;;;;;12.40;5.87;;;14.50;99.90;;;;;;5010265;28;20049;-84
2021/07/09 01:37:57;;;;;;;10.82;6.63;;;14.50;99.90;;;;;;5026589;28;20057;-84
2021/07/09 01:40:24;;;;;;;13.80;6.35;;;14.50;99.90;;;;;;5027114;28;20053;-84
2021/07/09 01:42:52;;;;;;;10.60;6.70;;;14.50;99.90;;;;;;5012483;28;20057;-84
2021/07/09 01:45:19;;;;;;;11.30;7.60;;;14.50;99.90;;;;;;5017004;28;20364;-84
2021/07/09 01:47:47;;;;;;;11.52;7.07;;;14.50;99.90;;;;;;5015662;28;20065;-84
2021/07/09 01:50:14;;;;;;;9.75;7.55;;;14.50;99.90;;;;;;5017327;28;20050;-84
2021/07/09 01:52:41;;;;;;;6.63;5.32;;;14.50;99.90;;;;;;5027301;28;20041;-84
2021/07/09 01:55:09;;;;;;;9.43;7.43;;;14.40;99.90;;;;;;5032635;28;20383;-84
2021/07/09 01:57:36;;;;;;;9.57;7.10;;;14.40;99.90;;;;;;5029279;28;20045;-84
2021/07/09 02:00:08;;;;;;;11.68;7.25;;;14.40;99.90;;;;;;5011280;28;20042;-83
2021/07/09 02:02:35;;;;;;;12.85;7.72;;;14.30;99.90;;;;;;5011240;28;20076;-84
2021/07/09 02:05:07;;;;;;;10.27;7.22;;;14.30;99.90;;;;;;5033815;28;20049;-84
2021/07/09 02:07:34;;;;;;;12.20;6.70;;;14.30;99.90;;;;;;5031804;28;20045;-84
2021/07/09 02:10:01;;;;;;;11.13;7.80;;;14.30;99.90;;;;;;5017905;28;20045;-84
2021/07/09 02:12:29;;;;;;;12.27;7.88;;;14.30;99.90;;;;;;5031068;28;20045;-84
2021/07/09 02:14:56;;;;;;;11.65;7.07;;;14.40;99.90;;;;;;5012552;28;20049;-84
2021/07/09 02:17:23;;;;;;;12.35;7.30;;;14.30;99.90;;;;;;5026896;28;20056;-84
2021/07/09 02:19:51;;;;;;;9.77;7.47;;;14.30;99.90;;;;;;5015355;28;20044;-84
2021/07/09 02:22:20;;;;;;;10.60;7.32;;;14.40;99.90;;;;;;5036597;28;20045;-84
2021/07/09 02:24:48;;;;;;;12.40;6.90;;;14.40;99.90;;;;;;5023175;28;20053;-84
2021/07/09 02:27:16;;;;;;;12.05;6.88;;;14.40;99.90;;;;;;5011011;28;20364;-83
2021/07/09 02:29:44;;;;;;;8.63;6.60;;;14.40;99.90;;;;;;5033132;28;20107;-83
2021/07/09 02:32:13;;;;;;;7.80;6.47;;;14.40;99.90;;;;;;5028501;28;20283;-84
2021/07/09 02:34:41;;;;;;;8.68;6.93;;;14.40;99.90;;;;;;5013361;28;20092;-84
2021/07/09 02:37:11;;;;;;;11.38;6.70;;;14.40;99.90;;;;;;5017896;28;20101;-84
2021/07/09 02:39:40;;;;;;;10.27;6.75;;;14.40;99.90;;;;;;5015352;28;20482;-83
2021/07/09 02:42:08;;;;;;;12.90;7.05;;;14.40;99.90;;;;;;5013937;28;20756;-83
2021/07/09 02:44:35;;;;;;;15.48;7.18;;;14.40;99.90;;;;;;5016343;28;20045;-84
2021/07/09 02:47:03;;;;;;;10.93;7.57;;;14.40;99.90;;;;;;5015409;28;20428;-83
2021/07/09 02:49:30;;;;;;;12.77;6.50;;;14.40;99.90;;;;;;5033303;28;20049;-84
2021/07/09 02:51:57;;;;;;;12.02;6.57;;;14.40;99.90;;;;;;5013843;28;20038;-83
2021/07/09 02:54:24;;;;;;;14.35;6.93;;;14.40;99.90;;;;;;5032428;28;20049;-83
2021/07/09 02:56:51;;;;;;;18.80;7.72;;;14.40;99.90;;;;;;5011249;28;20050;-83
2021/07/09 02:59:18;;;;;;;14.43;8.02;;;14.40;99.90;;;;;;5023964;28;20073;-84
2021/07/09 03:01:46;;;;;;;15.57;8.55;;;14.30;99.90;;;;;;5037116;28;20044;-83
2021/07/09 03:04:13;;;;;;;17.65;8.43;;;14.40;99.90;;;;;;5026723;28;20053;-84
2021/07/09 03:06:41;;;;;;;15.60;8.18;;;14.30;99.90;;;;;;5014380;28;20041;-84
2021/07/09 03:09:10;;;;;;;13.40;9.30;;;14.40;99.90;;;;;;5023638;28;20050;-83
2021/07/09 03:11:39;;;;;;;12.77;8.68;;;14.30;99.90;;;;;;5024857;28;20072;-83
2021/07/09 03:14:07;;;;;;;13.20;9.73;;;14.30;99.90;;;;;;5042579;28;20056;-84
2021/07/09 03:16:35;;;;;;;17.25;10.02;;;14.30;99.90;;;;;;5031373;28;20041;-84
2021/07/09 03:19:07;;;;;;;17.83;10.07;;;14.30;99.90;;;;;;5007063;28;20050;-83
2021/07/09 03:21:35;;;;;;;20.23;10.85;;;14.30;99.90;;;;;;5007477;28;20095;-83
2021/07/09 03:24:03;;;;;;;16.35;10.70;;;14.30;99.90;;;;;;5022008;28;20053;-84
2021/07/09 03:26:31;;;;;;;16.17;10.93;;;14.30;99.90;;;;;;5023325;28;20427;-84
2021/07/09 03:28:59;;;;;;;13.65;10.63;;;14.30;99.90;;;;;;5028074;28;20049;-84
2021/07/09 03:31:27;;;;;;;19.45;12.40;;;14.30;99.90;;;;;;5041858;28;20037;-83
2021/07/09 03:33:54;;;;;;;16.10;10.82;;;14.20;99.90;;;;;;5021231;28;20426;-83
2021/07/09 03:36:21;;;;;;;17.08;11.20;;;14.20;99.90;;;;;;5017505;28;20049;-84
2021/07/09 03:38:49;;;;;;;16.98;10.75;;;14.20;99.90;;;;;;5010647;28;20072;-83
2021/07/09 03:41:16;;;;;;;15.48;11.15;;;14.20;99.90;;;;;;5013068;28;20058;-84
2021/07/09 03:43:44;;;;;;;14.90;11.15;;;14.20;99.90;;;;;;5011799;28;20041;-84
2021/07/09 03:46:11;;;;;;;15.73;9.82;;;14.20;99.90;;;;;;5018182;28;20056;-83
2021/07/09 03:48:38;;;;;;;15.43;10.60;;;14.20;99.90;;;;;;5023312;28;20049;-83
2021/07/09 03:51:06;;;;;;;15.20;10.38;;;14.20;99.90;;;;;;5020033;28;20479;-83
2021/07/09 03:53:33;;;;;;;14.50;10.53;;;14.20;99.90;;;;;;5011097;28;20049;-84
2021/07/09 03:56:01;;;;;;;15.75;9.65;;;14.20;99.90;;;;;;5030569;28;20400;-83
2021/07/09 03:58:31;;;;;;;14.07;9.85;;;14.20;99.90;;;;;;5017130;28;20042;-84
2021/07/09 04:00:58;;;;;;;11.93;9.40;;;14.20;99.90;;;;;;5023337;28;20041;-83
2021/07/09 04:03:25;;;;;;;13.23;8.98;;;14.10;99.90;;;;;;5038290;28;20038;-85
2021/07/09 04:05:52;;;;;;;12.80;9.05;;;14.10;99.90;;;;;;5025130;28;20053;-84
2021/07/09 04:08:19;;;;;;;15.18;10.00;;;14.20;99.90;;;;;;5010174;28;20089;-83
2021/07/09 04:10:46;;;;;;;13.77;8.85;;;14.10;99.90;;;;;;5017752;28;20041;-84
2021/07/09 04:13:13;;;;;;;15.27;9.40;;;14.10;99.90;;;;;;5016156;28;20046;-83
2021/07/09 04:15:41;;;;;;;16.98;9.95;;;14.10;99.90;;;;;;5015392;28;20128;-84
2021/07/09 04:18:08;;;;;;;15.18;9.88;;;14.10;99.90;;;;;;5013288;28;20069;-83
2021/07/09 04:20:35;;;;;;;16.67;9.93;;;14.10;99.90;;;;;;5028925;28;20683;-83
2021/07/09 04:23:02;;;;;;;16.27;10.45;;;14.10;99.90;;;;;;5013539;28;20045;-84
2021/07/09 04:25:29;;;;;;;20.17;10.23;;;14.10;99.90;;;;;;5026999;28;20048;-83
2021/07/09 04:27:56;;;;;;;17.90;9.95;;;14.10;99.90;;;;;;5012273;28;20050;-84
2021/07/09 04:30:23;;;;;;;17.83;10.70;;;14.10;99.90;;;;;;5019081;28;20045;-83
2021/07/09 04:32:50;;;;;;;12.25;9.98;;;14.10;99.90;;;;;;5011333;28;20037;-83
2021/07/09 04:35:18;;;;;;;16.42;10.75;;;14.10;99.90;;;;;;5027798;28;20479;-84
2021/07/09 04:37:44;;;;;;;15.68;10.55;;;14.20;99.90;;;;;;5018188;28;20056;-84
2021/07/09 04:40:12;;;;;;;19.27;10.60;;;14.20;99.90;;;;;;5010527;28;20055;-83
2021/07/09 04:42:39;;;;;;;15.95;10.27;;;14.20;99.90;;;;;;5015603;28;20049;-83
2021/07/09 04:45:07;;;;;;;15.32;10.20;;;14.10;99.90;;;;;;5024483;28;20221;-83
2021/07/09 04:47:34;;;;;;;18.73;10.65;;;14.20;99.90;;;;;;5016299;28;20754;-84
2021/07/09 04:50:02;;;;;;;14.93;10.30;;;14.20;99.90;;;;;;5022411;28;20056;-83
2021/07/09 04:52:29;;;;;;;18.45;11.25;;;14.20;99.90;;;;;;5027375;28;20053;-84
2021/07/09 04:54:56;;;;;;;17.02;10.52;;;14.20;99.90;;;;;;5016810;28;20118;-84
2021/07/09 04:57:23;;;;;;;17.30;11.05;;;14.20;99.90;;;;;;5023858;28;20057;-84
2021/07/09 04:59:52;;;;;;;15.65;9.98;;;14.20;99.90;;;;;;5014954;28;20045;-82
2021/07/09 05:02:22;;;;;;;13.57;10.52;;;14.20;99.90;;;;;;5009654;28;20656;-84
2021/07/09 05:04:49;;;;;;;15.02;10.75;;;14.20;99.90;;;;;;5019539;28;20037;-84
2021/07/09 05:07:16;;;;;;;16.67;11.75;;;14.20;99.90;;;;;;5027064;28;20052;-84
2021/07/09 05:09:42;;;;;;;17.17;11.18;;;14.20;99.90;;;;;;5016006;28;20061;-83
2021/07/09 05:12:09;;;;;;;22.80;11.93;;;14.20;99.90;;;;;;5013519;28;20049;-83
2021/07/09 05:14:36;;;;;;;17.50;11.40;;;14.20;99.90;;;;;;5026008;28;20045;-84
2021/07/09 05:17:04;;;;;;;15.80;10.65;;;14.20;99.90;;;;;;5020972;28;20136;-85
2021/07/09 05:19:31;;;;;;;16.27;11.38;;;14.20;99.90;;;;;;5028697;28;20048;-83
2021/07/09 05:21:58;;;;;;;18.52;11.70;;;14.20;99.90;;;;;;5024639;28;20056;-83
2021/07/09 05:24:26;;;;;;;16.25;11.75;;;14.20;99.90;;;;;;5012927;28;20378;-83
2021/07/09 05:26:54;;;;;;;17.80;10.05;;;14.20;99.90;;;;;;5033660;28;20053;-84
2021/07/09 05:29:22;;;;;;;16.75;10.73;;;14.10;99.90;;;;;;5015301;28;20503;-83
2021/07/09 05:31:50;;;;;;;21.15;11.73;;;14.10;99.90;;;;;;5017200;28;20041;-83
2021/07/09 05:34:17;;;;;;;17.45;11.55;;;14.10;99.90;;;;;;5015364;28;20041;-83
2021/07/09 05:36:45;;;;;;;18.90;11.13;;;14.10;99.90;;;;;;5034689;28;20042;-83
2021/07/09 05:39:15;;;;;;;19.15;10.65;;;14.10;99.90;;;;;;5007226;28;20391;-83
2021/07/09 05:41:43;;;;;;;15.70;11.27;;;14.10;99.90;;;;;;5033518;28;20045;-83
2021/07/09 05:44:11;;;;;;;15.95;10.38;;;14.10;99.90;;;;;;5014152;28;20438;-84
2021/07/09 05:46:38;;;;;;;16.63;10.88;;;14.10;99.90;;;;;;5014684;28;20045;-83
2021/07/09 05:49:05;;;;;;;20.75;12.02;;;14.10;99.90;;;;;;5030807;28;20053;-83
2021/07/09 05:51:32;;;;;;;15.32;11.23;;;14.20;99.90;;;;;;5032816;28;20048;-83
2021/07/09 05:53:59;;;;;;;18.02;11.35;;;14.20;99.90;;;;;;5032050;28;20422;-83
2021/07/09 05:56:26;;;;;;;13.65;10.00;;;14.20;99.90;;;;;;5014896;28;20048;-84
2021/07/09 05:58:53;;;;;;;16.83;10.93;;;14.20;99.90;;;;;;5014427;28;20049;-85
2021/07/09 06:01:20;;;;;;;14.20;10.50;;;14.20;99.90;;;;;;5015338;28;20441;-83
2021/07/09 06:03:47;;;;;;;14.27;11.30;;;14.20;99.90;;;;;;5015662;28;20049;-83
2021/07/09 06:06:14;;;;;;;14.90;10.55;;;14.30;99.90;;;;;;5033690;28;20046;-84
2021/07/09 06:08:41;;;;;;;15.77;10.68;;;14.30;99.90;;;;;;5013380;28;20068;-83
2021/07/09 06:11:08;;;;;;;14.98;10.73;;;14.40;99.90;;;;;;5045435;28;20136;-83
2021/07/09 06:13:35;;;;;;;14.73;10.90;;;14.40;99.90;;;;;;5013237;28;20057;-83
2021/07/09 06:16:03;;;;;;;14.88;10.35;;;14.40;99.90;;;;;;5030727;28;20045;-83
2021/07/09 06:18:30;;;;;;;14.88;9.60;;;14.50;99.90;;;;;;5021071;28;20037;-82
2021/07/09 06:21:17;;;;;;;14.38;9.43;;;14.50;99.90;;;;;;5029906;28;20509;-83
2021/07/09 06:23:45;;;;;;;14.30;8.95;;;14.50;99.90;;;;;;5013743;28;20045;-83
2021/07/09 06:26:12;;;;;;;13.85;9.35;;;14.60;99.90;;;;;;5031728;28;20494;-83
2021/07/09 06:28:39;;;;;;;14.52;9.73;;;14.60;99.90;;;;;;5013883;28;20483;-83
2021/07/09 06:31:06;;;;;;;16.35;9.52;;;14.70;99.90;;;;;;5008219;28;20087;-83
2021/07/09 06:33:33;;;;;;;14.18;9.40;;;14.70;99.90;;;;;;5013597;28;20396;-83
2021/07/09 06:36:00;;;;;;;12.25;8.93;;;14.70;99.90;;;;;;5012056;28;20049;-82
2021/07/09 06:38:27;;;;;;;15.63;10.63;;;14.80;99.90;;;;;;5042769;28;20068;-83
2021/07/09 06:40:54;;;;;;;14.85;10.20;;;14.80;99.90;;;;;;5020924;28;20387;-83
2021/07/09 06:43:21;;;;;;;15.07;10.75;;;14.80;99.90;;;;;;5030787;28;20057;-83
2021/07/09 06:45:48;;;;;;;13.18;10.02;;;14.90;99.90;;;;;;5016009;28;20046;-84
2021/07/09 06:48:15;;;;;;;11.55;9.35;;;15.00;99.90;;;;;;5024287;28;20057;-83
2021/07/09 06:50:42;;;;;;;12.82;9.35;;;15.00;99.90;;;;;;5025578;28;20046;-83
2021/07/09 06:53:09;;;;;;;12.98;10.32;;;15.00;99.90;;;;;;5006577;28;20056;-84
2021/07/09 06:55:37;;;;;;;12.05;9.77;;;15.10;99.90;;;;;;5029850;28;20055;-84
2021/07/09 06:58:04;;;;;;;14.38;9.43;;;15.20;99.90;;;;;;5011338;28;20050;-83
2021/07/09 07:00:31;;;;;;;15.82;10.45;;;15.20;99.90;;;;;;5027871;28;20480;-83
2021/07/09 07:02:58;;;;;;;13.07;9.90;;;15.30;99.90;;;;;;5041362;28;20045;-83
2021/07/09 07:05:28;;;;;;;12.18;8.23;;;15.40;99.90;;;;;;5039638;28;20364;-84
2021/07/09 07:07:55;;;;;;;10.43;8.02;;;15.50;99.90;;;;;;5029385;28;20052;-83
2021/07/09 07:10:23;;;;;;;9.95;6.35;;;15.60;99.90;;;;;;5016937;28;20037;-84
2021/07/09 07:12:50;;;;;;;7.45;5.30;;;15.70;99.90;;;;;;5030104;28;20046;-83
2021/07/09 07:15:17;;;;;;;8.43;5.90;;;15.80;99.90;;;;;;5019423;28;20049;-84
2021/07/09 07:17:44;;;;;;;8.40;6.03;;;15.80;99.90;;;;;;5033096;28;20046;-83
2021/07/09 07:20:12;;;;;;;10.43;7.20;;;15.90;99.90;;;;;;5016926;28;20057;-84
2021/07/09 07:22:39;;;;;;;9.18;7.00;;;16.00;99.90;;;;;;5019532;28;20038;-84
2021/07/09 07:25:06;;;;;;;12.77;7.75;;;16.10;99.90;;;;;;5019605;28;20054;-84
2021/07/09 07:27:33;;;;;;;9.82;7.28;;;16.10;99.90;;;;;;5023760;28;20491;-83
2021/07/09 07:30:00;;;;;;;9.25;7.65;;;16.10;99.90;;;;;;5012969;28;20052;-84
2021/07/09 07:32:27;;;;;;;8.13;7.25;;;16.20;99.90;;;;;;5037613;28;21189;-84
2021/07/09 07:34:54;;;;;;;8.90;7.20;;;16.20;99.90;;;;;;5036306;28;20041;-84
2021/07/09 07:37:22;;;;;;;8.40;7.38;;;16.20;99.90;;;;;;5016566;28;20156;-84
2021/07/09 07:39:50;;;;;;;6.90;6.05;;;16.30;99.90;;;;;;5015026;28;20052;-83
2021/07/09 07:42:17;;;;;;;7.25;4.72;;;16.40;99.90;;;;;;5002050;28;20050;-84
2021/07/09 07:44:44;;;;;;;5.70;4.50;;;16.40;99.90;;;;;;5032392;28;20045;-83
2021/07/09 07:47:11;;;;;;;6.45;4.45;;;16.50;99.90;;;;;;5014565;28;20052;-84
2021/07/09 07:49:38;;;;;;;5.15;3.92;;;16.50;99.90;;;;;;4999337;28;20419;-84
2021/07/09 07:52:05;;;;;;;4.32;3.50;;;16.60;99.90;;;;;;5014363;28;20056;-83
2021/07/09 07:54:32;;;;;;;5.25;3.42;;;16.70;99.90;;;;;;5030039;28;20045;-83
2021/07/09 07:57:01;;;;;;;4.93;3.88;;;16.80;99.90;;;;;;5011645;28;20377;-84
2021/07/09 07:59:31;;;;;;;3.80;2.92;;;16.90;99.90;;;;;;5011387;28;20046;-83
2021/07/09 08:01:58;;;;;;;2.88;2.55;;;17.00;99.90;;;;;;5011618;28;20049;-83
2021/07/09 08:04:25;;;;;;;2.75;2.45;;;17.10;99.90;;;;;;5009283;28;20045;-83
2021/07/09 08:06:52;;;;;;;4.30;2.35;;;17.10;99.90;;;;;;5031190;28;20361;-83
2021/07/09 08:09:19;;;;;;;3.25;2.53;;;17.20;99.90;;;;;;5018176;28;20053;-84
2021/07/09 08:11:47;;;;;;;3.47;2.20;;;17.40;99.90;;;;;;5012466;28;20096;-83
2021/07/09 08:14:14;;;;;;;2.92;2.00;;;17.50;99.90;;;;;;5012546;28;20137;-84
2021/07/09 08:16:41;;;;;;;2.75;2.55;;;17.60;99.90;;;;;;5014055;28;20038;-83
2021/07/09 08:19:08;;;;;;;6.13;2.45;;;17.70;99.90;;;;;;5034558;28;20091;-84
2021/07/09 08:21:35;;;;;;;4.57;1.98;;;17.80;99.90;;;;;;5026031;28;20468;-84
2021/07/09 08:24:02;;;;;;;2.80;2.40;;;17.90;99.90;;;;;;5010697;28;20060;-83
2021/07/09 08:26:29;;;;;;;2.15;1.92;;;18.00;99.90;;;;;;5042714;28;20049;-84
2021/07/09 08:28:57;;;;;;;3.03;1.85;;;18.00;99.90;;;;;;5015591;28;20045;-84
2021/07/09 08:31:37;;;;;;;1.80;1.70;;;18.10;99.90;;;;;;5035212;28;20045;-83
2021/07/09 08:34:05;;;;;;;2.13;1.77;;;18.20;99.90;;;;;;5020044;28;20069;-84
2021/07/09 08:36:32;;;;;;;1.83;1.67;;;18.30;99.90;;;;;;5022982;28;20041;-84
2021/07/09 08:38:59;;;;;;;2.78;2.20;;;18.40;99.90;;;;;;5013627;28;20112;-84
2021/07/09 08:41:26;;;;;;;2.67;1.55;;;18.40;99.90;;;;;;5017478;28;20041;-84
2021/07/09 08:43:53;;;;;;;2.58;1.70;;;18.40;99.90;;;;;;5004764;28;20042;-84
2021/07/09 08:46:21;;;;;;;2.75;1.90;;;18.40;99.90;;;;;;5025929;28;20137;-84
2021/07/09 08:48:58;;;;;;;3.50;1.60;;;18.50;99.90;;;;;;5009992;28;20050;-84
2021/07/09 08:51:25;;;;;;;2.25;1.60;;;18.50;99.90;;;;;;5011592;28;20046;-83
2021/07/09 08:53:52;;;;;;;1.70;1.60;;;18.60;99.90;;;;;;5003675;28;20048;-84
2021/07/09 08:56:20;;;;;;;2.42;1.75;;;18.70;99.90;;;;;;5022907;28;20045;-84
2021/07/09 08:58:47;;;;;;;2.65;1.60;;;18.80;99.90;;;;;;5007459;28;20048;-83
2021/07/09 09:01:14;;;;;;;3.42;1.60;;;18.90;99.90;;;;;;5006442;28;20053;-83
2021/07/09 09:03:41;;;;;;;1.95;1.70;;;19.00;99.90;;;;;;5012291;28;20053;-84
2021/07/09 09:06:16;;;;;;;3.55;1.63;;;19.00;99.90;;;;;;5009378;28;20149;-83
2021/07/09 09:08:43;;;;;;;3.15;1.63;;;19.10;99.90;;;;;;5009432;28;20061;-84
2021/07/09 09:11:11;;;;;;;2.42;1.52;;;19.10;99.90;;;;;;5009969;28;20046;-84
2021/07/09 09:13:38;;;;;;;1.98;1.48;;;19.20;99.90;;;;;;5016619;28;20049;-84
2021/07/09 09:16:14;;;;;;;1.80;1.30;;;19.20;99.90;;;;;;5023179;28;20088;-84
2021/07/09 09:18:44;;;;;;;1.92;1.30;;;19.30;99.90;;;;;;5008222;28;20085;-84
2021/07/09 09:21:15;;;;;;;2.13;1.65;;;19.40;99.90;;;;;;5007226;28;20057;-84
2021/07/09 09:23:51;;;;;;;2.50;1.75;;;19.60;99.90;;;;;;5009274;28;20045;-84
2021/07/09 09:26:42;;;;;;;1.65;1.48;;;19.60;99.90;;;;;;5019536;28;20045;-84
2021/07/09 09:29:11;;;;;;;2.35;1.48;;;19.70;99.90;;;;;;5023536;28;20046;-84
2021/07/09 09:31:40;;;;;;;1.80;1.58;;;19.80;99.90;;;;;;5013454;28;20112;-84
2021/07/09 09:34:07;;;;;;;1.63;1.35;;;19.80;99.90;;;;;;5008396;28;20073;-84
2021/07/09 09:36:34;;;;;;;3.38;1.50;;;19.80;99.90;;;;;;5007000;28;20046;-84
2021/07/09 09:39:03;;;;;;;2.45;1.40;;;19.80;99.90;;;;;;5005718;28;20057;-84
2021/07/09 09:41:31;;;;;;;3.20;1.50;;;19.80;99.90;;;;;;5009246;28;20372;-84
2021/07/09 09:44:12;;;;;;;2.45;1.45;;;19.80;99.90;;;;;;5008776;28;20411;-84
2021/07/09 09:46:40;;;;;;;3.25;1.40;;;19.80;99.90;;;;;;5008455;28;20119;-84
2021/07/09 09:49:12;;;;;;;2.30;1.60;;;19.80;99.90;;;;;;5025999;28;20065;-84
2021/07/09 09:51:40;;;;;;;1.52;1.42;;;19.80;99.90;;;;;;5020915;28;20049;-84
2021/07/09 09:54:09;;;;;;;1.40;1.30;;;19.80;99.90;;;;;;5007216;28;20053;-84
2021/07/09 09:56:43;;;;;;;2.45;1.60;;;19.80;99.90;;;;;;5013982;28;20111;-84
2021/07/09 09:59:14;;;;;;;1.30;1.10;;;19.90;99.90;;;;;;5005438;28;20053;-84
2021/07/09 10:01:50;;;;;;;2.25;1.35;;;19.90;99.90;;;;;;5014937;28;20417;-84
2021/07/09 10:04:18;;;;;;;3.35;1.40;;;19.90;99.90;;;;;;5013568;28;20152;-84
2021/07/09 10:06:46;;;;;;;2.23;1.30;;;20.00;99.90;;;;;;5029195;28;20048;-84
2021/07/09 10:09:15;;;;;;;2.08;1.55;;;20.00;99.90;;;;;;5006983;28;20300;-84
2021/07/09 10:11:43;;;;;;;2.63;1.40;;;20.00;99.90;;;;;;5011953;28;20056;-84
2021/07/09 10:14:12;;;;;;;3.55;1.40;;;20.10;99.90;;;;;;5016688;28;20387;-85
2021/07/09 10:16:42;;;;;;;3.28;1.40;;;20.20;99.90;;;;;;5031948;28;20042;-84
2021/07/09 10:19:12;;;;;;;1.50;1.13;;;20.30;99.90;;;;;;5008682;28;20466;-83
2021/07/09 10:21:40;;;;;;;2.13;1.25;;;20.40;99.90;;;;;;5012829;28;20130;-84
2021/07/09 10:24:08;;;;;;;2.67;1.50;;;20.40;99.90;;;;;;5010889;28;20050;-84
2021/07/09 10:26:40;;;;;;;;;;;20.40;99.90;;;;;;5028312;28;20060;-83
2021/07/09 10:29:21;;;;;;;1.38;1.23;;;20.30;99.90;;;;;;5009345;28;19928;-83
2021/07/09 10:31:50;;;;;;;2.65;1.27;;;20.20;99.90;;;;;;5008659;28;20045;-83
2021/07/09 10:34:36;;;;;;;1.60;1.30;;;20.10;99.90;;;;;;5009526;28;20611;-82
2021/07/09 10:37:20;;;;;;;7.75;1.73;;;20.00;99.90;;;;;;5029651;28;20072;-85
2021/07/09 10:39:51;;;;;;;3.10;1.20;;;20.00;99.90;;;;;;5025017;28;20048;-84
2021/07/09 10:42:29;;;;;;;1.55;1.20;;;19.90;99.90;;;;;;5005393;28;20041;-84
2021/07/09 10:45:14;;;;;;;1.35;1.23;;;19.90;99.90;;;;;;5007626;28;20049;-83
2021/07/09 10:47:47;;;;;;;1.30;1.20;;;19.90;99.90;;;;;;5024646;28;20431;-83
2021/07/09 10:50:18;;;;;;;2.42;1.30;;;19.80;99.90;;;;;;5009518;28;20450;-83
2021/07/09 10:53:11;;;;;;;2.60;1.08;;;19.70;99.90;;;;;;5014334;28;20446;-83
2021/07/09 10:55:53;;;;;;;3.20;1.50;;;19.70;99.90;;;;;;5000911;28;20316;-83
2021/07/09 10:58:24;;;;;;;3.25;1.25;;;19.70;99.90;;;;;;5008019;28;20387;-83
2021/07/09 11:01:17;;;;;;;1.25;1.10;;;19.60;99.90;;;;;;5007147;28;20710;-83
2021/07/09 11:03:45;;;;;;;1.85;1.02;;;19.70;99.90;;;;;;5008361;28;20081;-83
2021/07/09 11:06:44;;;;;;;1.10;1.00;;;19.70;99.90;;;;;;5007379;28;20060;-83
2021/07/09 11:09:12;;;;;;;1.88;1.15;;;19.70;99.90;;;;;;5019004;28;20402;-83
2021/07/09 11:11:43;;;;;;;2.05;1.20;;;19.70;99.90;;;;;;5027678;28;20049;-85
2021/07/09 11:14:16;;;;;;;1.45;1.08;;;19.70;99.90;;;;;;5014993;28;20188;-83
2021/07/09 11:16:44;;;;;;;1.15;1.05;;;19.80;99.90;;;;;;5015494;28;20080;-83
2021/07/09 11:19:19;;;;;;;1.10;1.00;;;19.90;99.90;;;;;;5009432;28;20049;-84
2021/07/09 11:21:53;;;;;;;1.75;1.02;;;20.00;99.90;;;;;;5010105;28;20046;-83
2021/07/09 11:24:30;;;;;;;2.47;1.15;;;20.10;99.90;;;;;;5010362;28;20037;-84
2021/07/09 11:26:58;;;;;;;1.00;1.00;;;20.20;99.90;;;;;;5022291;28;20060;-83
2021/07/09 11:29:27;;;;;;;1.27;1.15;;;20.20;99.90;;;;;;5008096;28;20077;-83
2021/07/09 11:32:14;;;;;;;1.48;1.38;;;20.20;99.90;;;;;;5011516;28;20037;-83
2021/07/09 11:34:50;;;;;;;1.70;1.05;;;20.30;99.90;;;;;;5007241;28;20041;-84
2021/07/09 11:37:24;;;;;;;1.58;1.25;;;20.40;99.90;;;;;;5008456;28;20502;-84
2021/07/09 11:39:56;;;;;;;5.18;1.00;;;20.40;99.90;;;;;;5026720;28;20045;-83
2021/07/09 11:42:24;;;;;;;1.98;1.00;;;20.40;99.90;;;;;;5007487;28;20052;-84
2021/07/09 11:44:59;;;;;;;2.78;1.20;;;20.40;99.90;;;;;;5012975;28;20041;-83
2021/07/09 11:47:28;;;;;;;1.30;1.20;;;20.40;99.90;;;;;;5013131;28;20042;-83
2021/07/09 11:50:01;;;;;;;1.60;1.30;;;20.40;99.90;;;;;;5010202;28;20046;-84
2021/07/09 11:52:33;;;;;;;2.00;1.00;;;20.40;99.90;;;;;;5012102;28;20045;-84
2021/07/09 11:55:05;;;;;;;1.45;1.00;;;20.50;99.90;;;;;;5012680;28;20048;-83
2021/07/09 11:57:40;;;;;;;3.28;1.23;;;20.50;99.90;;;;;;5013878;28;20048;-83
2021/07/09 12:00:10;;;;;;;1.48;1.10;;;20.50;99.90;;;;;;5010497;28;20046;-83
2021/07/09 12:02:38;;;;;;;2.15;1.20;;;20.60;99.90;;;;;;5013295;28;20041;-83
2021/07/09 12:05:08;;;;;;;1.45;1.20;;;20.60;99.90;;;;;;5013814;28;20123;-83
2021/07/09 12:07:36;;;;;;;1.90;1.10;;;20.60;99.90;;;;;;5008357;28;20057;-83
2021/07/09 12:10:08;;;;;;;2.50;1.17;;;20.50;99.90;;;;;;5017726;28;20049;-84
2021/07/09 12:12:44;;;;;;;1.58;0.70;;;20.50;99.90;;;;;;5017988;28;20045;-84
2021/07/09 12:15:18;;;;;;;4.00;0.90;;;20.40;99.90;;;;;;5014972;28;20053;-84
2021/07/09 12:17:54;;;;;;;0.85;0.85;;;20.30;99.90;;;;;;5012953;28;20049;-83
2021/07/09 12:20:30;;;;;;;1.65;0.90;;;20.20;99.90;;;;;;5010853;28;20487;-83
2021/07/09 12:23:08;;;;;;;3.13;0.85;;;20.20;99.90;;;;;;5007258;28;20072;-84
2021/07/09 12:25:42;;;;;;;;;;;20.10;99.90;;;;;;5017573;28;20049;-83
2021/07/09 12:28:12;;;;;;;2.13;1.05;;;20.00;99.90;;;;;;5040882;28;20326;-83
2021/07/09 12:30:51;;;;;;;1.92;1.00;;;20.00;99.90;;;;;;5022183;28;20052;-83
2021/07/09 12:33:25;;;;;;;1.65;1.00;;;20.00;99.90;;;;;;5017114;28;20053;-84
2021/07/09 12:36:11;;;;;;;1.70;0.90;;;19.90;99.90;;;;;;5012862;28;20056;-84
2021/07/09 12:38:43;;;;;;;1.27;1.10;;;19.90;99.90;;;;;;5003525;28;20480;-83
2021/07/09 12:41:15;;;;;;;1.00;0.95;;;19.90;99.90;;;;;;5016102;28;20045;-83
2021/07/09 12:43:48;;;;;;;1.25;1.15;;;19.80;99.90;;;;;;5033556;28;20049;-84
2021/07/09 12:46:19;;;;;;;2.00;1.15;;;19.70;99.90;;;;;;5038754;28;20041;-83
2021/07/09 12:48:53;;;;;;;1.45;0.90;;;19.70;99.90;;;;;;5020190;28;20041;-83
2021/07/09 12:51:30;;;;;;;1.52;1.10;;;19.70;99.90;;;;;;5014681;28;20045;-83